createdAt,value
2022-08-21T00:00:52.230Z,6.30
2022-08-21T00:03:41.045Z,7.32
2022-08-21T00:06:29.897Z,5.93
2022-08-21T00:09:18.438Z,5.50
2022-08-21T00:12:07.341Z,6.40
2022-08-21T00:14:58.071Z,6.47
2022-08-21T00:17:47.102Z,7.10
2022-08-21T00:20:36.568Z,5.55
2022-08-21T00:23:25.545Z,6.60
2022-08-21T00:26:14.035Z,7.13
2022-08-21T00:29:02.666Z,6.95
2022-08-21T00:31:52.367Z,6.78
2022-08-21T00:34:40.450Z,7.55
2022-08-21T00:37:30.515Z,7.20
2022-08-21T00:40:24.378Z,6.75
2022-08-21T00:43:15.529Z,7.90
2022-08-21T00:46:05.730Z,7.03
2022-08-21T00:48:57.166Z,6.40
2022-08-21T00:51:51.871Z,7.28
2022-08-21T00:54:43.247Z,6.47
2022-08-21T00:57:41.571Z,6.88
2022-08-21T01:00:33.554Z,5.70
2022-08-21T01:03:24.622Z,7.07
2022-08-21T01:09:02.666Z,6.18
2022-08-21T01:11:51.863Z,6.07
2022-08-21T01:14:40.443Z,6.57
2022-08-21T01:17:29.665Z,7.05
2022-08-21T01:20:18.698Z,5.88
2022-08-21T01:23:08.856Z,6.63
2022-08-21T01:25:57.140Z,6.25
2022-08-21T01:28:51.841Z,5.65
2022-08-21T01:31:40.838Z,6.65
2022-08-21T01:34:29.819Z,5.68
2022-08-21T01:37:18.863Z,6.30
2022-08-21T01:40:11.045Z,6.20
2022-08-21T01:42:59.132Z,5.93
2022-08-21T01:45:47.585Z,5.60
2022-08-21T01:48:36.773Z,6.07
2022-08-21T01:51:25.001Z,6.60
2022-08-21T01:54:13.734Z,6.50
2022-08-21T01:57:04.404Z,6.50
2022-08-21T01:59:53.230Z,5.90
2022-08-21T02:02:42.191Z,6.22
2022-08-21T02:05:31.381Z,6.90
2022-08-21T02:08:20.285Z,5.82
2022-08-21T02:11:09.259Z,5.70
2022-08-21T02:13:58.842Z,6.93
2022-08-21T02:16:48.295Z,6.18
2022-08-21T02:19:40.541Z,6.60
2022-08-21T02:22:29.726Z,6.18
2022-08-21T02:25:18.848Z,5.70
2022-08-21T02:28:09.982Z,5.72
2022-08-21T02:30:59.658Z,5.40
2022-08-21T02:33:48.586Z,6.90
2022-08-21T02:36:37.209Z,6.82
2022-08-21T02:39:27.219Z,6.60
2022-08-21T02:42:16.314Z,5.72
2022-08-21T02:45:05.035Z,5.28
2022-08-21T02:47:57.409Z,5.43
2022-08-21T02:50:49.203Z,5.43
2022-08-21T02:53:38.902Z,5.32
2022-08-21T02:56:30.783Z,6.05
2022-08-21T02:59:20.221Z,6.07
2022-08-21T03:02:09.340Z,5.35
2022-08-21T03:04:59.097Z,6.80
2022-08-21T03:07:49.672Z,7.07
2022-08-21T03:10:40.383Z,5.95
2022-08-21T03:13:29.197Z,5.60
2022-08-21T03:16:17.710Z,6.00
2022-08-21T03:19:06.141Z,5.55
2022-08-21T03:21:55.878Z,5.50
2022-08-21T03:24:44.390Z,6.78
2022-08-21T03:27:32.872Z,5.35
2022-08-21T03:30:24.323Z,5.50
2022-08-21T03:33:15.468Z,6.22
2022-08-21T03:36:08.650Z,6.10
2022-08-21T03:38:58.708Z,5.95
2022-08-21T03:41:46.650Z,5.28
2022-08-21T03:44:35.673Z,5.35
2022-08-21T03:47:24.187Z,5.55
2022-08-21T03:50:12.542Z,5.50
2022-08-21T03:53:01.289Z,5.25
2022-08-21T03:55:53.597Z,5.30
2022-08-21T03:58:42.136Z,6.20
2022-08-21T04:01:31.278Z,5.55
2022-08-21T04:04:19.265Z,5.05
2022-08-21T04:07:08.068Z,5.32
2022-08-21T04:09:55.977Z,5.63
2022-08-21T04:12:45.821Z,5.25
2022-08-21T04:15:33.927Z,4.90
2022-08-21T04:18:23.348Z,4.70
2022-08-21T04:21:13.771Z,5.50
2022-08-21T04:26:51.457Z,5.75
2022-08-21T04:29:41.215Z,5.55
2022-08-21T04:32:29.947Z,5.15
2022-08-21T04:35:20.062Z,4.82
2022-08-21T04:38:08.519Z,5.80
2022-08-21T04:40:56.912Z,5.22
2022-08-21T04:43:45.315Z,5.20
2022-08-21T04:46:34.796Z,4.82
2022-08-21T04:49:23.685Z,5.05
2022-08-21T04:52:13.357Z,5.97
2022-08-21T04:55:03.817Z,5.22
2022-08-21T04:57:54.580Z,5.85
2022-08-21T05:00:43.867Z,6.40
2022-08-21T05:03:35.468Z,5.07
2022-08-21T05:06:25.893Z,5.30
2022-08-21T05:09:16.916Z,5.25
2022-08-21T05:12:05.930Z,5.15
2022-08-21T05:14:54.600Z,4.80
2022-08-21T05:17:43.978Z,4.32
2022-08-21T05:20:43.343Z,5.10
2022-08-21T05:23:32.013Z,5.32
2022-08-21T05:26:20.716Z,5.05
2022-08-21T05:29:12.864Z,5.07
2022-08-21T05:32:01.282Z,5.35
2022-08-21T05:34:49.254Z,5.72
2022-08-21T05:37:39.073Z,4.65
2022-08-21T05:40:27.922Z,6.07
2022-08-21T05:43:17.469Z,5.00
2022-08-21T05:46:06.561Z,7.78
2022-08-21T05:48:54.782Z,5.03
2022-08-21T05:51:44.098Z,5.95
2022-08-21T05:54:33.856Z,5.45
2022-08-21T05:57:22.113Z,5.25
2022-08-21T06:00:13.275Z,4.60
2022-08-21T06:05:50.308Z,6.70
2022-08-21T06:08:38.751Z,6.90
2022-08-21T06:11:29.146Z,8.07
2022-08-21T06:14:17.614Z,8.13
2022-08-21T06:17:07.243Z,9.13
2022-08-21T06:19:56.590Z,8.13
2022-08-21T06:22:44.953Z,9.75
2022-08-21T06:25:33.653Z,7.88
2022-08-21T06:28:23.651Z,10.93
2022-08-21T06:31:17.923Z,9.50
2022-08-21T06:34:06.410Z,10.48
2022-08-21T06:36:54.608Z,10.55
2022-08-21T06:39:45.575Z,11.18
2022-08-21T06:42:34.550Z,11.70
2022-08-21T06:45:24.606Z,11.43
2022-08-21T06:48:18.390Z,11.65
2022-08-21T06:51:07.902Z,8.88
2022-08-21T06:53:56.319Z,9.98
2022-08-21T06:56:47.903Z,8.60
2022-08-21T06:59:36.384Z,9.02
2022-08-21T07:02:26.110Z,9.27
2022-08-21T07:05:17.882Z,10.13
2022-08-21T07:08:07.324Z,11.30
2022-08-21T07:10:57.074Z,84.78
2022-08-21T07:13:46.004Z,261.43
2022-08-21T07:16:34.381Z,116.20
2022-08-21T07:19:24.534Z,186.00
2022-08-21T07:22:14.402Z,451.60
2022-08-21T07:25:03.519Z,320.58
2022-08-21T07:27:52.395Z,346.13
2022-08-21T07:30:41.260Z,216.43
2022-08-21T07:33:32.234Z,148.88
2022-08-21T07:39:10.559Z,342.88
2022-08-21T07:41:58.912Z,126.82
2022-08-21T07:44:47.522Z,243.80
2022-08-21T07:50:31.530Z,209.93
2022-08-21T07:53:21.133Z,205.02
2022-08-21T07:56:12.340Z,147.98
2022-08-21T07:59:01.138Z,118.10
2022-08-21T08:01:49.163Z,86.85
2022-08-21T08:04:38.024Z,67.65
2022-08-21T08:07:39.463Z,63.42
2022-08-21T08:10:29.388Z,58.15
2022-08-21T08:13:17.402Z,48.40
2022-08-21T08:16:06.274Z,32.42
2022-08-21T08:18:56.066Z,37.58
2022-08-21T08:21:44.807Z,36.63
2022-08-21T08:24:33.000Z,26.38
2022-08-21T08:27:23.563Z,26.40
2022-08-21T08:30:14.903Z,25.57
2022-08-21T08:33:03.452Z,19.92
2022-08-21T08:35:53.615Z,13.82
2022-08-21T08:38:41.950Z,22.83
2022-08-21T08:41:34.707Z,10.85
2022-08-21T08:44:24.306Z,15.73
2022-08-21T08:47:15.411Z,13.82
2022-08-21T08:50:06.940Z,18.85
2022-08-21T08:53:00.526Z,12.60
2022-08-21T08:55:52.200Z,13.00
2022-08-21T08:58:44.873Z,9.65
2022-08-21T09:01:38.784Z,12.05
2022-08-21T09:04:30.179Z,14.77
2022-08-21T09:07:27.161Z,10.77
2022-08-21T09:10:20.750Z,11.18
2022-08-21T09:13:18.327Z,10.70
2022-08-21T09:16:15.262Z,9.18
2022-08-21T09:19:10.495Z,7.78
2022-08-21T09:22:05.963Z,9.25
2022-08-21T09:25:04.479Z,11.60
2022-08-21T09:27:53.437Z,11.63
2022-08-21T09:30:43.064Z,7.90
2022-08-21T09:33:32.191Z,11.77
2022-08-21T09:36:28.297Z,8.65
2022-08-21T09:39:26.552Z,8.52
2022-08-21T09:42:24.933Z,14.05
2022-08-21T09:45:17.975Z,8.18
2022-08-21T09:48:19.913Z,11.50
2022-08-21T09:51:10.978Z,29.83
2022-08-21T09:57:31.082Z,367.73
2022-08-21T10:00:26.478Z,389.90
2022-08-21T10:03:20.052Z,220.82
2022-08-21T10:06:11.827Z,99.32
2022-08-21T10:09:16.925Z,60.97
2022-08-21T10:12:18.315Z,52.97
2022-08-21T10:15:18.060Z,36.75
2022-08-21T10:18:16.284Z,22.48
2022-08-21T10:21:12.879Z,18.35
2022-08-21T10:24:11.329Z,18.30
2022-08-21T10:27:25.488Z,19.90
2022-08-21T10:30:19.013Z,20.25
2022-08-21T10:33:21.335Z,14.70
2022-08-21T10:36:16.944Z,16.13
2022-08-21T10:39:26.834Z,10.20
2022-08-21T10:42:33.978Z,10.02
2022-08-21T10:45:35.035Z,10.30
2022-08-21T10:48:30.934Z,14.90
2022-08-21T10:51:30.425Z,15.57
2022-08-21T10:54:29.225Z,12.25
2022-08-21T10:57:40.636Z,15.20
2022-08-21T11:00:34.249Z,12.60
2022-08-21T11:03:31.336Z,10.05
2022-08-21T11:06:24.004Z,15.68
2022-08-21T11:09:16.252Z,11.20
2022-08-21T11:12:21.759Z,7.18
2022-08-21T11:15:35.764Z,8.57
2022-08-21T11:18:29.458Z,22.35
2022-08-21T11:21:30.652Z,15.38
2022-08-21T11:24:30.092Z,16.92
2022-08-21T11:27:26.590Z,19.23
2022-08-21T11:30:15.906Z,17.17
2022-08-21T11:33:20.681Z,23.38
2022-08-21T11:36:16.955Z,21.38
2022-08-21T11:39:15.294Z,15.52
2022-08-21T11:42:12.736Z,14.15
2022-08-21T11:45:14.329Z,12.68
2022-08-21T11:48:14.940Z,8.65
2022-08-21T11:51:08.645Z,9.10
2022-08-21T11:54:07.203Z,8.60
2022-08-21T11:57:01.880Z,6.97
2022-08-21T11:59:59.971Z,6.32
2022-08-21T12:02:53.426Z,8.90
2022-08-21T12:05:46.203Z,8.15
2022-08-21T12:08:37.012Z,11.07
2022-08-21T12:11:30.739Z,8.98
2022-08-21T12:14:21.642Z,8.55
2022-08-21T12:17:20.536Z,6.85
2022-08-21T12:20:36.740Z,8.13
2022-08-21T12:23:31.756Z,7.13
2022-08-21T12:26:28.796Z,6.32
2022-08-21T12:29:24.111Z,7.57
2022-08-21T12:32:26.874Z,7.15
2022-08-21T12:35:24.927Z,7.57
2022-08-21T12:38:20.076Z,9.07
2022-08-21T12:41:16.107Z,7.95
2022-08-21T12:44:12.547Z,9.07
2022-08-21T12:47:04.570Z,13.43
2022-08-21T12:49:58.869Z,8.65
2022-08-21T12:53:01.590Z,6.00
2022-08-21T12:55:50.187Z,5.45
2022-08-21T12:58:42.099Z,4.25
2022-08-21T13:01:37.073Z,4.22
2022-08-21T13:04:38.435Z,3.83
2022-08-21T13:07:31.228Z,3.95
2022-08-21T13:10:24.074Z,3.78
2022-08-21T13:13:25.652Z,5.70
2022-08-21T13:16:22.984Z,6.05
2022-08-21T13:19:23.910Z,4.60
2022-08-21T13:25:31.570Z,5.55
2022-08-21T13:28:20.618Z,6.47
2022-08-21T13:31:11.923Z,6.65
2022-08-21T13:34:00.357Z,10.02
2022-08-21T13:36:49.231Z,9.20
2022-08-21T13:39:37.563Z,7.40
2022-08-21T13:42:28.421Z,11.57
2022-08-21T13:45:20.616Z,7.13
2022-08-21T13:48:08.868Z,9.75
2022-08-21T13:50:58.118Z,6.00
2022-08-21T13:53:53.558Z,8.02
2022-08-21T13:56:46.481Z,6.30
2022-08-21T13:59:38.492Z,6.10
2022-08-21T14:02:27.463Z,7.20
2022-08-21T14:05:23.521Z,8.05
2022-08-21T14:08:15.183Z,5.80
2022-08-21T14:14:00.087Z,7.75
2022-08-21T14:16:56.690Z,5.88
2022-08-21T14:19:48.167Z,9.27
2022-08-21T14:22:41.116Z,8.57
2022-08-21T14:25:33.025Z,6.15
2022-08-21T14:28:28.215Z,5.20
2022-08-21T14:31:20.406Z,6.82
2022-08-21T14:34:19.502Z,5.20
2022-08-21T14:37:08.709Z,5.57
2022-08-21T14:39:57.162Z,5.28
2022-08-21T14:42:46.283Z,7.45
2022-08-21T14:45:35.522Z,7.78
2022-08-21T14:48:23.655Z,5.22
2022-08-21T14:51:14.111Z,5.97
2022-08-21T14:54:02.828Z,4.80
2022-08-21T14:56:51.718Z,6.05
2022-08-21T14:59:44.055Z,5.82
2022-08-21T15:02:32.665Z,6.03
2022-08-21T15:05:24.150Z,5.68
2022-08-21T15:08:22.916Z,6.97
2022-08-21T15:11:19.893Z,6.30
2022-08-21T15:14:26.528Z,6.50
2022-08-21T15:17:15.531Z,5.32
2022-08-21T15:20:05.584Z,7.00
2022-08-21T15:22:54.477Z,7.90
2022-08-21T15:25:46.821Z,5.13
2022-08-21T15:28:37.793Z,7.50
2022-08-21T15:34:14.210Z,4.63
2022-08-21T15:37:02.550Z,4.97
2022-08-21T15:39:54.110Z,5.93
2022-08-21T15:42:45.256Z,5.45
2022-08-21T15:45:34.856Z,4.85
2022-08-21T15:48:23.768Z,5.85
2022-08-21T15:51:12.940Z,6.22
2022-08-21T15:54:01.665Z,4.68
2022-08-21T15:56:52.608Z,5.07
2022-08-21T15:59:44.644Z,4.97
2022-08-21T16:02:34.426Z,3.95
2022-08-21T16:05:23.370Z,6.53
2022-08-21T16:08:12.179Z,4.97
2022-08-21T16:11:02.220Z,5.43
2022-08-21T16:13:56.354Z,5.60
2022-08-21T16:16:47.017Z,7.13
2022-08-21T16:19:35.788Z,3.87
2022-08-21T16:22:24.158Z,5.18
2022-08-21T16:25:13.403Z,3.95
2022-08-21T16:28:03.940Z,5.47
2022-08-21T16:30:53.650Z,5.10
2022-08-21T16:33:46.518Z,5.28
2022-08-21T16:36:35.382Z,4.88
2022-08-21T16:39:24.259Z,4.38
2022-08-21T16:42:16.806Z,5.90
2022-08-21T16:45:12.202Z,5.35
2022-08-21T16:48:00.356Z,5.15
2022-08-21T16:50:51.224Z,4.88
2022-08-21T16:56:28.449Z,4.47
2022-08-21T16:59:17.470Z,4.55
2022-08-21T17:02:06.148Z,5.95
2022-08-21T17:04:54.847Z,4.20
2022-08-21T17:07:45.609Z,5.80
2022-08-21T17:10:34.194Z,4.85
2022-08-21T17:13:22.691Z,5.00
2022-08-21T17:16:10.853Z,4.03
2022-08-21T17:18:59.460Z,4.45
2022-08-21T17:21:48.581Z,4.30
2022-08-21T17:24:38.903Z,4.30
2022-08-21T17:27:29.205Z,4.90
2022-08-21T17:30:18.590Z,4.23
2022-08-21T17:33:07.469Z,5.00
2022-08-21T17:35:56.392Z,3.75
2022-08-21T17:38:45.119Z,4.28
2022-08-21T17:41:35.798Z,3.72
2022-08-21T17:44:23.814Z,4.38
2022-08-21T17:47:14.291Z,5.55
2022-08-21T17:50:02.939Z,3.92
2022-08-21T17:52:51.781Z,4.32
2022-08-21T17:55:41.625Z,4.72
2022-08-21T17:58:31.728Z,4.35
2022-08-21T18:01:21.533Z,4.82
2022-08-21T18:04:10.458Z,4.18
2022-08-21T18:06:59.342Z,4.50
2022-08-21T18:09:47.825Z,4.00
2022-08-21T18:12:36.702Z,5.43
2022-08-21T18:15:26.503Z,3.50
2022-08-21T18:18:15.868Z,5.10
2022-08-21T18:21:04.592Z,3.95
2022-08-21T18:23:55.275Z,4.85
2022-08-21T18:26:44.618Z,4.20
2022-08-21T18:29:33.183Z,3.58
2022-08-21T18:32:36.991Z,4.30
2022-08-21T18:35:26.180Z,3.72
2022-08-21T18:38:14.666Z,3.97
2022-08-21T18:41:10.341Z,4.53
2022-08-21T18:43:58.934Z,4.18
2022-08-21T18:46:52.637Z,3.80
2022-08-21T18:49:43.101Z,3.83
2022-08-21T18:52:31.620Z,5.28
2022-08-21T18:55:22.215Z,4.28
2022-08-21T18:58:10.849Z,4.10
2022-08-21T19:00:59.703Z,3.78
2022-08-21T19:03:48.081Z,4.20
2022-08-21T19:06:43.938Z,4.67
2022-08-21T19:09:34.489Z,4.75
2022-08-21T19:12:26.211Z,4.13
2022-08-21T19:15:22.747Z,4.70
2022-08-21T19:18:14.475Z,3.88
2022-08-21T19:21:03.024Z,3.83
2022-08-21T19:23:53.882Z,4.43
2022-08-21T19:29:34.962Z,4.93
2022-08-21T19:32:23.654Z,3.10
2022-08-21T19:35:12.891Z,3.67
2022-08-21T19:38:01.579Z,3.80
2022-08-21T19:40:51.337Z,4.10
2022-08-21T19:43:43.171Z,4.30
2022-08-21T19:46:32.961Z,3.40
2022-08-21T19:49:26.893Z,3.70
2022-08-21T19:52:15.141Z,4.45
2022-08-21T19:55:04.260Z,4.95
2022-08-21T19:57:55.978Z,4.78
2022-08-21T20:00:44.416Z,3.87
2022-08-21T20:03:32.326Z,3.90
2022-08-21T20:06:24.553Z,3.97
2022-08-21T20:09:13.275Z,3.40
2022-08-21T20:12:10.033Z,3.40
2022-08-21T20:15:00.279Z,3.70
2022-08-21T20:17:49.657Z,4.00
2022-08-21T20:20:37.757Z,4.25
2022-08-21T20:23:30.096Z,3.97
2022-08-21T20:26:20.124Z,3.50
2022-08-21T20:29:08.623Z,3.80
2022-08-21T20:31:58.556Z,4.40
2022-08-21T20:34:47.577Z,3.03
2022-08-21T20:37:40.551Z,4.68
2022-08-21T20:40:32.931Z,3.50
2022-08-21T20:43:42.447Z,3.78
2022-08-21T20:46:50.534Z,3.08
2022-08-21T20:49:45.953Z,3.45
2022-08-21T20:52:37.242Z,4.05
2022-08-21T20:55:29.834Z,4.47
2022-08-21T20:58:29.709Z,4.25
2022-08-21T21:01:18.510Z,3.58
2022-08-21T21:04:19.462Z,4.10
2022-08-21T21:07:13.894Z,3.53
2022-08-21T21:10:04.584Z,3.20
2022-08-21T21:12:58.081Z,3.83
2022-08-21T21:15:51.290Z,3.83
2022-08-21T21:18:44.565Z,3.30
2022-08-21T21:21:36.859Z,3.97
2022-08-21T21:24:33.807Z,3.80
2022-08-21T21:27:27.205Z,3.35
2022-08-21T21:30:21.005Z,3.78
2022-08-21T21:33:09.944Z,3.25
2022-08-21T21:36:08.285Z,4.25
2022-08-21T21:39:09.523Z,3.03
2022-08-21T21:42:11.256Z,4.90
2022-08-21T21:48:07.586Z,2.80
2022-08-21T21:54:19.021Z,3.55
2022-08-21T21:57:32.273Z,3.58
2022-08-21T22:00:26.493Z,4.00
2022-08-21T22:03:25.291Z,3.42
2022-08-21T22:06:19.292Z,3.35
2022-08-21T22:09:19.242Z,3.63
2022-08-21T22:12:27.348Z,4.03
2022-08-21T22:15:15.587Z,3.15
2022-08-21T22:18:18.854Z,3.80
2022-08-21T22:24:05.441Z,3.00
2022-08-21T22:27:04.542Z,3.72
2022-08-21T22:29:56.966Z,3.53
2022-08-21T22:32:50.349Z,3.78
2022-08-21T22:35:39.627Z,3.83
2022-08-21T22:38:36.258Z,4.63
2022-08-21T22:41:27.817Z,2.80
2022-08-21T22:44:22.241Z,3.67
2022-08-21T22:47:12.470Z,3.30
2022-08-21T22:50:04.984Z,3.17
2022-08-21T22:52:58.533Z,2.97
2022-08-21T22:55:56.397Z,3.20
2022-08-21T22:58:56.362Z,3.47
2022-08-21T23:01:46.465Z,3.40
2022-08-21T23:07:59.511Z,2.60
2022-08-21T23:10:48.178Z,3.45
2022-08-21T23:13:42.468Z,2.95
2022-08-21T23:16:39.471Z,3.05
2022-08-21T23:19:56.429Z,3.20
2022-08-21T23:22:51.573Z,2.75
2022-08-21T23:25:58.543Z,2.95
2022-08-21T23:29:07.787Z,3.20
2022-08-21T23:32:13.511Z,3.25
2022-08-21T23:35:16.436Z,3.58
2022-08-21T23:38:12.091Z,3.60
2022-08-21T23:41:11.264Z,3.08
2022-08-21T23:44:12.484Z,3.00
2022-08-21T23:47:12.366Z,2.95
2022-08-21T23:50:14.088Z,2.78
2022-08-21T23:53:16.006Z,4.10
2022-08-21T23:56:15.329Z,3.28
2022-08-21T23:59:17.101Z,2.90
